Time;durP1;ratioP1;P1;durP2;ratioP2;P2;SDS_P1;SDS_P2;PMS_P1;PMS_P2;Temp;Humidity;BMP_temperature;BMP_pressure;BME280_temperature;BME280_humidity;BME280_pressure;Samples;Min_cycle;Max_cycle;Signal;HPM_P1;HPM_P2
2022/04/16 00:00:15;;;;;;;16.87;12.83;;;6.40;99.90;;;;;;5025414;28;20509;-73
2022/04/16 00:02:43;;;;;;;20.17;12.83;;;6.40;99.90;;;;;;5013007;28;20096;-74
2022/04/16 00:05:09;;;;;;;22.33;14.40;;;6.30;99.90;;;;;;5025555;28;20140;-74
2022/04/16 00:07:35;;;;;;;17.83;13.23;;;6.30;99.90;;;;;;5011944;28;20144;-75
2022/04/16 00:10:00;;;;;;;17.50;12.90;;;6.20;99.90;;;;;;5002771;28;20132;-75
2022/04/16 00:12:27;;;;;;;19.27;12.03;;;6.20;99.90;;;;;;5026510;28;20453;-74
2022/04/16 00:14:53;;;;;;;25.33;15.90;;;6.10;99.90;;;;;;5029591;28;20155;-73
2022/04/16 00:17:19;;;;;;;18.27;13.17;;;6.10;99.90;;;;;;5025288;28;20525;-75
2022/04/16 00:19:46;;;;;;;20.53;14.87;;;6.00;99.90;;;;;;5031172;28;20053;-74
2022/04/16 00:22:12;;;;;;;26.20;16.80;;;6.00;99.90;;;;;;5001046;28;20461;-74
2022/04/16 00:24:40;;;;;;;27.77;17.87;;;5.90;99.90;;;;;;5022942;28;20056;-74
2022/04/16 00:27:07;;;;;;;26.17;18.13;;;5.90;99.90;;;;;;5012505;28;20128;-74
2022/04/16 00:29:34;;;;;;;23.50;14.17;;;5.90;99.90;;;;;;5025635;28;20069;-75
2022/04/16 00:31:59;;;;;;;21.37;15.97;;;5.80;99.90;;;;;;5031321;28;20505;-75
2022/04/16 00:34:25;;;;;;;31.07;17.90;;;5.80;99.90;;;;;;5004045;28;20046;-73
2022/04/16 00:36:52;;;;;;;26.73;19.43;;;5.80;99.90;;;;;;5028026;28;20041;-74
2022/04/16 00:39:18;;;;;;;23.43;16.27;;;5.80;99.90;;;;;;5030545;28;20045;-74
2022/04/16 00:41:44;;;;;;;31.07;19.00;;;5.70;99.90;;;;;;5005854;28;20398;-75
2022/04/16 00:44:10;;;;;;;27.03;16.77;;;5.70;99.90;;;;;;5030963;28;20049;-75
2022/04/16 00:46:36;;;;;;;26.23;17.10;;;5.70;99.90;;;;;;5024907;28;20053;-74
2022/04/16 00:49:02;;;;;;;26.53;16.93;;;5.70;99.90;;;;;;5029979;28;20037;-75
2022/04/16 00:51:29;;;;;;;25.33;18.13;;;5.70;99.90;;;;;;5030397;28;20049;-74
2022/04/16 00:53:56;;;;;;;31.90;18.50;;;5.70;99.90;;;;;;5024867;28;20049;-74
2022/04/16 00:56:22;;;;;;;25.50;17.57;;;5.70;99.90;;;;;;5022199;28;20046;-74
2022/04/16 00:58:48;;;;;;;31.33;21.70;;;5.60;99.90;;;;;;5009635;28;20598;-75
2022/04/16 01:01:14;;;;;;;29.67;19.23;;;5.60;99.90;;;;;;5007858;28;20465;-74
2022/04/16 01:03:43;;;;;;;25.53;16.53;;;5.70;99.90;;;;;;5031024;28;20124;-74
2022/04/16 01:06:14;;;;;;;22.27;16.33;;;5.60;99.90;;;;;;5007490;28;20034;-75
2022/04/16 01:08:40;;;;;;;34.07;21.70;;;5.60;99.90;;;;;;5030314;28;20034;-74
2022/04/16 01:11:07;;;;;;;35.93;22.33;;;5.60;99.90;;;;;;5024086;28;20041;-74
2022/04/16 01:13:33;;;;;;;27.27;19.73;;;5.70;99.90;;;;;;5029754;28;20520;-74
2022/04/16 01:15:59;;;;;;;42.10;25.37;;;5.70;99.90;;;;;;5028211;28;20037;-74
2022/04/16 01:18:25;;;;;;;38.13;25.07;;;5.70;99.90;;;;;;5026093;28;20042;-74
2022/04/16 01:20:51;;;;;;;35.27;23.40;;;5.70;99.90;;;;;;5031632;28;20049;-74
2022/04/16 01:23:18;;;;;;;18.83;14.87;;;5.70;99.90;;;;;;5022164;28;20042;-74
2022/04/16 01:25:44;;;;;;;32.60;22.23;;;5.70;99.90;;;;;;5029059;28;20793;-75
2022/04/16 01:28:11;;;;;;;37.43;23.40;;;5.70;99.90;;;;;;5028567;28;20119;-75
2022/04/16 01:30:37;;;;;;;33.07;22.80;;;5.70;99.90;;;;;;5013839;28;20458;-75
2022/04/16 01:33:03;;;;;;;36.63;25.13;;;5.70;99.90;;;;;;5015029;28;20041;-75
2022/04/16 01:35:29;;;;;;;36.77;23.23;;;5.70;99.90;;;;;;5025141;28;20136;-75
2022/04/16 01:37:55;;;;;;;33.53;22.43;;;5.80;99.90;;;;;;5022590;28;20045;-75
2022/04/16 01:40:25;;;;;;;39.13;24.33;;;5.80;99.90;;;;;;5023433;28;20387;-75
2022/04/16 01:42:55;;;;;;;35.67;22.53;;;5.80;99.90;;;;;;5027863;28;20409;-75
2022/04/16 01:45:24;;;;;;;32.17;21.50;;;5.80;99.90;;;;;;5021558;28;21142;-75
2022/04/16 01:47:50;;;;;;;33.57;21.63;;;5.80;99.90;;;;;;5008775;28;20417;-75
2022/04/16 01:50:16;;;;;;;42.77;25.93;;;5.70;99.90;;;;;;5027355;28;20398;-75
2022/04/16 01:52:42;;;;;;;33.93;22.20;;;5.70;99.90;;;;;;5003236;28;20060;-75
2022/04/16 01:55:10;;;;;;;47.90;28.60;;;5.70;99.90;;;;;;5036734;28;20096;-76
2022/04/16 01:57:37;;;;;;;40.57;24.63;;;5.70;99.90;;;;;;5011306;28;20064;-75
2022/04/16 02:00:06;;;;;;;34.43;22.67;;;5.70;99.90;;;;;;5006630;28;20050;-76
2022/04/16 02:02:32;;;;;;;39.23;23.93;;;5.70;99.90;;;;;;5027884;28;20398;-75
2022/04/16 02:04:58;;;;;;;34.07;23.27;;;5.70;99.90;;;;;;5022012;28;20048;-75
2022/04/16 02:07:23;;;;;;;28.23;21.23;;;5.60;99.90;;;;;;5030057;28;20045;-75
2022/04/16 02:09:49;;;;;;;36.27;23.37;;;5.60;99.90;;;;;;5002790;28;20056;-75
2022/04/16 02:12:15;;;;;;;42.27;24.57;;;5.60;99.90;;;;;;5023212;28;20591;-75
2022/04/16 02:14:42;;;;;;;46.43;26.40;;;5.50;99.90;;;;;;5009925;28;20665;-75
2022/04/16 02:17:08;;;;;;;35.17;18.90;;;5.50;99.90;;;;;;5019036;28;20053;-76
2022/04/16 02:19:34;;;;;;;32.60;21.97;;;5.40;99.90;;;;;;4993836;28;20048;-75
2022/04/16 02:21:59;;;;;;;35.23;22.53;;;5.40;99.90;;;;;;5009990;28;20367;-75
2022/04/16 02:24:25;;;;;;;35.57;22.40;;;5.40;99.90;;;;;;5028905;28;20504;-75
2022/04/16 02:26:51;;;;;;;34.50;22.70;;;5.40;99.90;;;;;;5027084;28;20492;-75
2022/04/16 02:29:16;;;;;;;42.47;25.90;;;5.40;99.90;;;;;;5011878;28;20087;-75
2022/04/16 02:31:45;;;;;;;29.10;18.07;;;5.30;99.90;;;;;;5030545;28;20037;-75
2022/04/16 02:34:11;;;;;;;25.00;17.50;;;5.30;99.90;;;;;;4982830;28;20191;-75
2022/04/16 02:36:37;;;;;;;42.80;24.50;;;5.30;99.90;;;;;;5012183;28;20073;-76
2022/04/16 02:39:03;;;;;;;30.43;20.13;;;5.20;99.90;;;;;;5019687;28;20042;-75
2022/04/16 02:41:29;;;;;;;30.63;20.87;;;5.20;99.90;;;;;;5019486;28;20102;-75
2022/04/16 02:43:55;;;;;;;31.17;20.23;;;5.20;99.90;;;;;;5023538;28;20053;-76
2022/04/16 02:49:06;;;;;;;30.20;20.38;;;5.10;99.90;;;;;;5025158;28;20120;-75
2022/04/16 02:51:32;;;;;;;18.07;12.57;;;5.10;99.90;;;;;;5024895;28;20509;-75
2022/04/16 02:53:57;;;;;;;23.77;15.70;;;5.00;99.90;;;;;;5028170;28;20033;-75
2022/04/16 02:56:23;;;;;;;22.60;15.23;;;5.00;99.90;;;;;;5025999;28;20041;-75
2022/04/16 02:58:49;;;;;;;29.63;20.50;;;5.00;99.90;;;;;;5010950;28;20068;-75
2022/04/16 03:01:15;;;;;;;26.57;18.73;;;5.00;99.90;;;;;;5027056;28;20084;-75
2022/04/16 03:03:41;;;;;;;33.67;20.80;;;5.00;99.90;;;;;;5000658;28;20551;-75
2022/04/16 03:06:09;;;;;;;31.70;20.27;;;5.10;99.90;;;;;;5029479;28;20060;-75
2022/04/16 03:08:35;;;;;;;29.23;19.27;;;5.10;99.90;;;;;;5022987;28;20053;-75
2022/04/16 03:11:01;;;;;;;31.17;21.03;;;5.20;99.90;;;;;;5012945;28;20041;-75
2022/04/16 03:13:26;;;;;;;28.90;19.67;;;5.20;99.90;;;;;;5028870;28;20489;-74
2022/04/16 03:18:37;;;;;;;35.58;23.85;;;5.30;99.90;;;;;;5026285;28;20115;-75
2022/04/16 03:21:04;;;;;;;57.53;30.17;;;5.40;99.90;;;;;;5003363;28;20045;-75
2022/04/16 03:23:31;;;;;;;55.13;30.80;;;5.40;99.90;;;;;;5028580;28;20037;-75
2022/04/16 03:25:59;;;;;;;42.03;26.20;;;5.50;99.90;;;;;;5000920;28;20042;-75
2022/04/16 03:28:25;;;;;;;35.07;23.67;;;5.60;99.90;;;;;;5027809;28;20119;-75
2022/04/16 03:30:51;;;;;;;40.20;25.93;;;5.60;99.90;;;;;;5029126;28;20498;-75
2022/04/16 03:33:16;;;;;;;47.20;28.30;;;5.70;99.90;;;;;;5000899;28;20513;-76
2022/04/16 03:35:42;;;;;;;37.93;25.10;;;5.70;99.90;;;;;;4994887;28;20420;-75
2022/04/16 03:38:08;;;;;;;47.53;29.47;;;5.70;99.90;;;;;;5024667;28;20500;-75
2022/04/16 03:40:36;;;;;;;59.93;33.30;;;5.80;99.90;;;;;;5013108;28;20126;-75
2022/04/16 03:43:02;;;;;;;57.93;33.07;;;5.90;99.90;;;;;;5012900;28;20061;-75
2022/04/16 03:45:29;;;;;;;59.00;34.53;;;5.90;99.90;;;;;;5022030;28;20078;-75
2022/04/16 03:47:57;;;;;;;52.53;31.97;;;6.00;99.90;;;;;;5027897;28;20052;-75
2022/04/16 03:50:23;;;;;;;68.13;37.23;;;6.00;99.90;;;;;;5024893;28;20049;-75
2022/04/16 03:52:51;;;;;;;69.33;37.90;;;6.00;99.90;;;;;;5027823;28;20041;-75
2022/04/16 04:01:06;;;;;;;54.90;33.87;;;6.30;99.90;;;;;;5018136;28;20057;-75
2022/04/16 04:03:32;;;;;;;48.67;32.77;;;6.50;99.90;;;;;;5021087;28;20049;-75
2022/04/16 04:06:01;;;;;;;51.53;33.57;;;6.60;99.90;;;;;;5007823;28;20462;-75
2022/04/16 04:08:26;;;;;;;53.83;34.23;;;6.80;99.90;;;;;;5019865;28;20097;-76
2022/04/16 04:10:52;;;;;;;50.10;30.10;;;6.90;99.90;;;;;;5012553;28;20564;-75
2022/04/16 04:13:20;;;;;;;41.70;28.30;;;6.90;99.90;;;;;;5012235;28;20049;-75
2022/04/16 04:15:46;;;;;;;46.97;29.37;;;7.10;99.90;;;;;;5033176;28;20049;-75
2022/04/16 04:18:12;;;;;;;41.80;29.27;;;7.10;99.90;;;;;;5032209;28;20414;-75
2022/04/16 04:20:38;;;;;;;38.43;27.40;;;7.20;99.90;;;;;;5009409;28;20073;-75
2022/04/16 04:23:07;;;;;;;39.20;28.40;;;7.30;99.90;;;;;;5009494;28;20096;-75
2022/04/16 04:25:33;;;;;;;38.00;26.87;;;7.30;99.90;;;;;;5023397;28;20065;-74
2022/04/16 04:27:58;;;;;;;40.67;26.67;;;7.50;99.90;;;;;;5026054;28;20041;-75
2022/04/16 04:30:25;;;;;;;36.73;25.50;;;7.40;99.90;;;;;;5032206;28;20041;-75
2022/04/16 04:32:51;;;;;;;40.50;26.73;;;7.50;99.90;;;;;;4990454;28;20106;-75
2022/04/16 04:35:17;;;;;;;39.13;26.10;;;7.50;99.90;;;;;;5032215;28;20513;-75
2022/04/16 04:37:42;;;;;;;36.63;26.10;;;7.50;99.90;;;;;;5030937;28;20053;-76
2022/04/16 04:40:09;;;;;;;36.57;25.53;;;7.60;99.90;;;;;;5019037;28;20424;-75
2022/04/16 04:42:36;;;;;;;36.20;25.43;;;7.60;99.90;;;;;;5016727;28;20107;-75
2022/04/16 04:45:07;;;;;;;34.57;24.23;;;7.60;99.90;;;;;;5029150;28;20042;-76
2022/04/16 04:47:34;;;;;;;36.40;24.77;;;7.60;99.90;;;;;;5006530;28;20101;-75
2022/04/16 04:49:59;;;;;;;35.67;23.87;;;7.60;99.90;;;;;;5004460;28;20046;-75
2022/04/16 04:52:26;;;;;;;29.47;20.83;;;7.60;99.90;;;;;;5030776;28;20362;-75
2022/04/16 04:54:52;;;;;;;33.23;21.83;;;7.60;99.90;;;;;;5008362;28;20045;-77
2022/04/16 04:57:18;;;;;;;31.63;22.07;;;7.70;99.90;;;;;;5020865;28;20048;-77
2022/04/16 04:59:43;;;;;;;27.23;20.20;;;7.70;99.90;;;;;;5025911;28;20042;-76
2022/04/16 05:02:09;;;;;;;26.90;18.53;;;7.70;99.90;;;;;;5044106;28;20417;-75
2022/04/16 05:04:36;;;;;;;30.30;19.97;;;7.70;99.90;;;;;;5031848;28;20076;-75
2022/04/16 05:07:05;;;;;;;27.57;19.33;;;7.70;99.90;;;;;;5028804;28;20103;-77
2022/04/16 05:09:31;;;;;;;29.23;20.13;;;7.80;99.90;;;;;;5031101;28;20390;-75
2022/04/16 05:11:57;;;;;;;28.17;19.40;;;7.80;99.90;;;;;;5028225;28;20044;-75
2022/04/16 05:14:23;;;;;;;31.03;20.93;;;7.80;99.90;;;;;;4998141;28;20053;-76
2022/04/16 05:16:49;;;;;;;27.33;18.43;;;7.90;99.90;;;;;;5024417;28;20037;-77
2022/04/16 05:19:15;;;;;;;27.60;18.17;;;7.90;99.90;;;;;;5006890;28;20049;-76
2022/04/16 05:21:42;;;;;;;26.57;17.43;;;7.90;99.90;;;;;;5030772;28;20061;-76
2022/04/16 05:24:09;;;;;;;26.00;18.37;;;7.90;99.90;;;;;;4995866;28;20050;-76
2022/04/16 05:26:35;;;;;;;23.90;17.10;;;8.00;99.90;;;;;;5030190;28;20411;-75
2022/04/16 05:29:01;;;;;;;25.73;17.00;;;8.00;99.90;;;;;;5029999;28;20037;-76
2022/04/16 05:31:30;;;;;;;25.57;16.67;;;8.10;99.90;;;;;;5030419;28;20077;-75
2022/04/16 05:36:42;;;;;;;23.20;16.00;;;8.20;99.90;;;;;;5030446;28;20128;-76
2022/04/16 05:39:08;;;;;;;24.37;16.60;;;8.20;99.90;;;;;;5031010;28;20053;-76
2022/04/16 05:41:33;;;;;;;23.67;15.93;;;8.30;99.90;;;;;;5012897;28;20066;-75
2022/04/16 05:43:59;;;;;;;23.17;17.10;;;8.30;99.90;;;;;;5015180;28;20094;-77
2022/04/16 05:46:25;;;;;;;21.27;14.73;;;8.40;99.90;;;;;;5026247;28;20405;-76
2022/04/16 05:48:51;;;;;;;23.87;15.50;;;8.40;99.90;;;;;;5010472;28;20076;-76
2022/04/16 05:51:17;;;;;;;22.37;14.13;;;8.50;99.90;;;;;;5025417;28;20129;-76
2022/04/16 05:53:45;;;;;;;23.80;15.40;;;8.50;99.90;;;;;;5030010;28;20052;-76
2022/04/16 05:56:11;;;;;;;26.37;15.23;;;8.50;99.90;;;;;;5014478;28;20590;-76
2022/04/16 05:58:37;;;;;;;22.47;15.27;;;8.50;99.90;;;;;;5024500;28;20045;-76
2022/04/16 06:01:03;;;;;;;21.17;14.63;;;8.60;99.90;;;;;;4995650;28;20398;-76
2022/04/16 06:03:29;;;;;;;18.83;14.03;;;8.60;99.90;;;;;;5008246;28;20044;-75
2022/04/16 06:05:56;;;;;;;20.30;14.70;;;8.70;99.90;;;;;;5011311;28;20076;-76
2022/04/16 06:08:22;;;;;;;22.43;14.93;;;8.70;99.90;;;;;;5012969;28;20042;-75
2022/04/16 06:10:49;;;;;;;23.10;14.83;;;8.70;99.90;;;;;;5030076;28;20048;-75
2022/04/16 06:13:14;;;;;;;21.63;14.23;;;8.80;99.90;;;;;;5029488;28;20049;-76
2022/04/16 06:15:41;;;;;;;20.90;14.10;;;8.80;99.90;;;;;;5030357;28;20053;-76
2022/04/16 06:18:08;;;;;;;20.87;12.50;;;8.80;99.90;;;;;;5029585;28;20045;-74
2022/04/16 06:20:33;;;;;;;19.87;13.10;;;8.80;99.90;;;;;;5025693;28;20046;-76
2022/04/16 06:22:59;;;;;;;24.27;14.47;;;8.80;99.90;;;;;;5028295;28;20471;-76
2022/04/16 06:25:25;;;;;;;20.10;13.20;;;8.80;99.90;;;;;;4991684;28;20415;-75
2022/04/16 06:27:52;;;;;;;21.33;13.50;;;8.80;99.90;;;;;;5030071;28;20796;-76
2022/04/16 06:30:18;;;;;;;23.30;14.47;;;8.80;99.90;;;;;;5024694;28;20041;-75
2022/04/16 06:32:43;;;;;;;20.40;13.20;;;8.80;99.90;;;;;;5024333;28;20052;-75
2022/04/16 06:35:12;;;;;;;21.93;13.53;;;8.80;99.90;;;;;;5027080;28;20061;-75
2022/04/16 06:37:40;;;;;;;18.10;13.53;;;8.90;99.90;;;;;;5012323;28;20049;-76
2022/04/16 06:40:07;;;;;;;18.50;13.27;;;9.00;99.90;;;;;;5027170;28;20041;-76
2022/04/16 06:42:33;;;;;;;23.93;13.80;;;9.20;99.90;;;;;;5012110;28;20052;-76
2022/04/16 06:45:00;;;;;;;20.83;13.30;;;9.50;99.90;;;;;;5018103;28;20037;-76
2022/04/16 06:47:26;;;;;;;20.87;13.40;;;10.30;99.90;;;;;;4993087;28;20051;-76
2022/04/16 06:49:51;;;;;;;16.37;11.13;;;11.00;99.90;;;;;;5027801;28;20033;-76
2022/04/16 06:52:17;;;;;;;17.73;11.73;;;12.00;99.90;;;;;;5026968;28;20051;-76
2022/04/16 06:54:43;;;;;;;16.57;10.93;;;12.80;99.90;;;;;;5029913;28;20059;-77
2022/04/16 06:57:09;;;;;;;15.23;11.47;;;13.30;99.90;;;;;;5023177;28;20556;-75
2022/04/16 06:59:35;;;;;;;16.40;11.23;;;13.40;99.90;;;;;;5024125;28;20521;-76
2022/04/16 07:02:02;;;;;;;18.83;11.57;;;13.60;99.90;;;;;;4996731;28;20065;-76
2022/04/16 07:04:28;;;;;;;15.93;11.50;;;13.70;99.90;;;;;;5009908;28;20100;-77
2022/04/16 07:06:54;;;;;;;17.47;11.40;;;13.80;99.90;;;;;;5034566;28;20045;-76
2022/04/16 07:09:19;;;;;;;14.57;10.50;;;13.90;99.90;;;;;;5029629;28;20468;-77
2022/04/16 07:11:45;;;;;;;15.67;11.03;;;13.70;99.90;;;;;;5029772;28;20068;-75
2022/04/16 07:14:11;;;;;;;13.27;9.70;;;13.70;99.90;;;;;;5027552;28;20055;-76
2022/04/16 07:16:37;;;;;;;14.80;10.77;;;13.50;99.90;;;;;;5013421;28;20045;-77
2022/04/16 07:19:04;;;;;;;15.90;10.30;;;13.30;99.90;;;;;;5028633;28;20068;-76
2022/04/16 07:21:30;;;;;;;14.00;9.23;;;12.90;99.90;;;;;;5027568;28;20107;-76
2022/04/16 07:23:55;;;;;;;13.93;10.57;;;12.70;99.90;;;;;;5011847;28;20454;-76
2022/04/16 07:26:21;;;;;;;14.07;10.33;;;12.40;99.90;;;;;;5015725;23;20072;-76
2022/04/16 07:28:47;;;;;;;14.07;9.37;;;12.20;99.90;;;;;;5014639;28;20059;-77
2022/04/16 07:31:12;;;;;;;15.23;9.63;;;12.10;99.90;;;;;;5048404;28;20041;-76
2022/04/16 07:33:38;;;;;;;12.70;9.50;;;12.00;99.90;;;;;;5032205;28;20035;-76
2022/04/16 07:36:05;;;;;;;13.80;9.50;;;12.00;99.90;;;;;;5043872;28;20057;-75
2022/04/16 07:38:32;;;;;;;12.27;9.13;;;12.00;99.90;;;;;;5048776;28;20132;-76
2022/04/16 07:40:57;;;;;;;14.03;9.83;;;12.00;99.90;;;;;;5033363;28;20064;-74
2022/04/16 07:43:23;;;;;;;11.20;8.13;;;12.10;99.90;;;;;;5031919;28;20041;-76
2022/04/16 07:45:49;;;;;;;11.90;8.90;;;12.10;99.90;;;;;;5052729;28;20099;-75
2022/04/16 07:48:15;;;;;;;12.70;9.10;;;11.90;99.90;;;;;;5033900;28;20565;-77
2022/04/16 07:50:40;;;;;;;13.00;8.50;;;12.00;99.90;;;;;;5031000;28;20135;-75
2022/04/16 07:53:08;;;;;;;12.03;8.17;;;11.90;99.90;;;;;;5031040;28;20500;-76
2022/04/16 07:55:33;;;;;;;11.57;7.63;;;11.80;99.90;;;;;;5034618;28;20063;-78
2022/04/16 07:58:00;;;;;;;9.67;6.63;;;11.80;99.90;;;;;;5028936;28;20127;-76
2022/04/16 08:00:26;;;;;;;13.10;7.53;;;11.70;99.90;;;;;;5038332;28;20041;-76
2022/04/16 08:02:52;;;;;;;10.53;6.33;;;11.50;99.90;;;;;;5028697;28;20424;-75
2022/04/16 08:05:18;;;;;;;8.37;5.10;;;11.50;99.90;;;;;;5017774;28;20045;-76
2022/04/16 08:07:44;;;;;;;10.10;6.30;;;11.40;99.90;;;;;;5028708;28;20522;-76
2022/04/16 08:10:11;;;;;;;10.23;5.47;;;11.50;99.90;;;;;;5047839;28;20462;-75
2022/04/16 08:12:37;;;;;;;9.17;5.53;;;11.60;99.90;;;;;;5061625;28;20045;-76
2022/04/16 08:15:04;;;;;;;7.73;4.67;;;11.60;99.90;;;;;;5048611;28;20055;-75
2022/04/16 08:17:29;;;;;;;9.13;5.00;;;11.50;99.90;;;;;;5034397;28;20604;-77
2022/04/16 08:19:56;;;;;;;8.07;4.30;;;11.40;99.90;;;;;;5038077;28;20116;-75
2022/04/16 08:22:22;;;;;;;9.33;4.40;;;11.40;99.90;;;;;;5033056;28;20028;-77
2022/04/16 08:27:33;;;;;;;5.30;3.70;;;11.50;99.90;;;;;;5072484;28;20045;-75
2022/04/16 08:29:59;;;;;;;6.33;3.57;;;11.50;99.90;;;;;;5049658;28;20041;-76
2022/04/16 08:32:25;;;;;;;9.07;3.83;;;11.70;99.90;;;;;;5032337;28;20103;-75
2022/04/16 08:34:51;;;;;;;5.03;3.00;;;12.10;99.90;;;;;;5037539;28;20083;-76
2022/04/16 08:37:16;;;;;;;6.60;2.97;;;12.70;99.90;;;;;;5051958;28;20119;-74
2022/04/16 08:39:42;;;;;;;5.60;3.30;;;13.20;99.90;;;;;;5053807;28;20041;-76
2022/04/16 08:42:08;;;;;;;5.13;2.73;;;13.50;96.00;;;;;;5029146;28;20033;-77
2022/04/16 08:44:38;;;;;;;5.00;2.60;;;13.50;96.20;;;;;;5035264;28;20052;-77
2022/04/16 08:47:05;;;;;;;4.07;2.50;;;13.70;96.10;;;;;;5036543;28;20083;-78
2022/04/16 08:49:33;;;;;;;6.00;2.30;;;14.20;96.00;;;;;;5035415;28;20045;-77
2022/04/16 08:51:59;;;;;;;3.07;2.20;;;14.80;92.20;;;;;;5052358;28;20460;-79
2022/04/16 08:54:25;;;;;;;3.57;2.30;;;15.00;89.70;;;;;;5037987;28;20044;-77
2022/04/16 08:56:51;;;;;;;3.37;2.27;;;15.30;83.20;;;;;;5054583;28;20102;-77
2022/04/16 08:59:17;;;;;;;3.13;2.10;;;15.40;85.80;;;;;;5044911;28;20041;-76
2022/04/16 09:01:47;;;;;;;4.33;2.17;;;15.90;84.50;;;;;;5036519;28;20045;-76
2022/04/16 09:04:19;;;;;;;5.23;2.10;;;16.10;75.50;;;;;;5055052;28;20555;-76
2022/04/16 09:06:57;;;;;;;5.13;2.13;;;16.40;74.80;;;;;;5051039;28;20046;-77
2022/04/16 09:09:23;;;;;;;4.90;1.67;;;16.60;71.90;;;;;;5032342;28;20106;-74
2022/04/16 09:11:49;;;;;;;4.17;1.90;;;16.40;71.50;;;;;;5035487;28;20052;-76
2022/04/16 09:14:15;;;;;;;4.70;2.30;;;16.10;70.40;;;;;;5013759;28;20412;-76
2022/04/16 09:16:42;;;;;;;4.83;2.00;;;15.90;72.10;;;;;;5034830;28;20049;-74
2022/04/16 09:19:13;;;;;;;3.13;1.73;;;15.60;74.90;;;;;;5047990;28;20032;-76
2022/04/16 09:21:38;;;;;;;3.17;1.90;;;15.40;73.70;;;;;;5045640;28;20060;-76
2022/04/16 09:24:04;;;;;;;3.07;1.83;;;15.40;76.90;;;;;;5022191;28;20418;-76
2022/04/16 09:26:31;;;;;;;3.07;1.90;;;15.30;74.00;;;;;;5049506;28;20091;-76
2022/04/16 09:29:04;;;;;;;3.03;1.90;;;15.20;72.30;;;;;;5030783;28;20394;-75
2022/04/16 09:31:34;;;;;;;4.43;1.83;;;15.30;74.50;;;;;;5011230;28;20502;-76
2022/04/16 09:34:00;;;;;;;3.57;1.80;;;15.50;72.60;;;;;;5029218;28;20302;-75
2022/04/16 09:36:28;;;;;;;4.43;2.23;;;15.90;72.00;;;;;;5041080;28;20045;-76
2022/04/16 09:39:01;;;;;;;4.10;2.30;;;16.20;71.50;;;;;;5032730;28;20049;-74
2022/04/16 09:41:33;;;;;;;2.92;1.80;;;16.90;73.10;;;;;;5029926;28;20045;-76
2022/04/16 09:43:59;;;;;;;5.10;1.80;;;17.40;67.00;;;;;;5045482;28;20599;-77
2022/04/16 09:46:28;;;;;;;4.70;1.50;;;17.70;62.80;;;;;;5043957;28;20133;-77
2022/04/16 09:48:59;;;;;;;3.57;1.60;;;18.20;57.30;;;;;;5045488;28;20048;-73
2022/04/16 09:51:27;;;;;;;3.87;1.40;;;18.50;54.80;;;;;;5033256;28;20041;-77
2022/04/16 09:53:54;;;;;;;3.93;1.50;;;19.00;55.10;;;;;;5045120;28;20045;-74
2022/04/16 09:56:22;;;;;;;10.50;1.80;;;19.40;52.80;;;;;;5052149;28;20049;-77
2022/04/16 09:58:52;;;;;;;3.40;1.50;;;19.30;50.20;;;;;;5029731;28;20052;-75
2022/04/16 10:01:19;;;;;;;2.80;1.40;;;19.30;50.30;;;;;;5029069;28;20555;-76
2022/04/16 10:03:46;;;;;;;2.93;1.37;;;19.50;49.40;;;;;;5047879;28;20041;-76
2022/04/16 10:06:12;;;;;;;2.37;1.20;;;19.80;48.00;;;;;;5034308;28;20070;-75
2022/04/16 10:08:39;;;;;;;2.77;1.40;;;19.90;46.60;;;;;;5048035;28;20491;-75
2022/04/16 10:11:06;;;;;;;2.37;1.10;;;19.90;48.00;;;;;;5050651;28;20078;-77
2022/04/16 10:13:38;;;;;;;2.20;1.30;;;20.30;48.00;;;;;;5030933;28;20056;-77
2022/04/16 10:16:12;;;;;;;1.60;1.00;;;20.70;45.00;;;;;;5029509;28;20042;-75
2022/04/16 10:18:38;;;;;;;1.58;0.80;;;20.90;43.80;;;;;;5050690;28;20053;-77
2022/04/16 10:21:13;;;;;;;2.30;1.03;;;21.10;43.00;;;;;;5035095;28;20049;-76
2022/04/16 10:23:40;;;;;;;1.93;0.90;;;21.10;43.60;;;;;;5028706;28;20037;-77
2022/04/16 10:26:09;;;;;;;2.63;0.80;;;21.20;40.90;;;;;;5036199;28;20057;-76
2022/04/16 10:28:40;;;;;;;3.37;0.70;;;21.10;38.30;;;;;;5048177;28;20583;-78
2022/04/16 10:31:17;;;;;;;1.30;0.60;;;20.70;37.30;;;;;;5053611;28;20652;-77
2022/04/16 10:33:56;;;;;;;1.83;0.80;;;20.80;37.20;;;;;;5053003;28;20033;-77
2022/04/16 10:36:25;;;;;;;5.70;0.80;;;20.00;35.20;;;;;;5050476;28;20501;-77
2022/04/16 10:38:52;;;;;;;0.87;0.57;;;19.80;37.70;;;;;;5052836;28;20040;-77
2022/04/16 10:41:20;;;;;;;2.53;0.70;;;20.10;39.90;;;;;;5053160;28;20054;-78
2022/04/16 10:43:52;;;;;;;2.83;0.90;;;20.80;40.30;;;;;;5050797;28;20045;-76
2022/04/16 10:46:18;;;;;;;1.17;0.80;;;21.00;36.60;;;;;;5018075;28;20033;-78
2022/04/16 10:48:44;;;;;;;2.23;0.87;;;20.90;36.70;;;;;;5033008;28;20127;-76
2022/04/16 10:51:10;;;;;;;1.63;0.70;;;20.80;38.90;;;;;;5050991;28;20041;-76
2022/04/16 10:53:39;;;;;;;2.50;0.70;;;20.50;37.50;;;;;;5031692;28;20051;-76
2022/04/16 10:56:14;;;;;;;0.67;0.67;;;20.30;37.10;;;;;;5013457;28;20046;-78
2022/04/16 10:58:41;;;;;;;1.03;0.67;;;20.50;38.70;;;;;;5052443;28;20065;-77
2022/04/16 11:01:09;;;;;;;1.57;0.70;;;20.70;35.80;;;;;;5055761;28;20037;-76
2022/04/16 11:03:44;;;;;;;1.57;0.60;;;20.30;37.10;;;;;;5047611;28;20419;-77
2022/04/16 11:06:10;;;;;;;1.37;0.70;;;19.90;34.40;;;;;;5050577;28;20529;-76
2022/04/16 11:08:41;;;;;;;0.80;0.80;;;19.60;36.70;;;;;;5032113;28;20068;-75
2022/04/16 11:11:07;;;;;;;2.43;0.70;;;19.70;37.60;;;;;;5051963;28;20056;-76
2022/04/16 11:13:36;;;;;;;2.37;0.90;;;19.40;35.60;;;;;;5051737;28;20099;-77
2022/04/16 11:16:02;;;;;;;1.33;0.80;;;19.40;37.00;;;;;;5052330;28;20076;-77
2022/04/16 11:18:37;;;;;;;1.47;0.90;;;19.50;37.30;;;;;;5038657;28;20048;-76
2022/04/16 11:21:08;;;;;;;1.73;0.90;;;19.40;35.80;;;;;;5047843;28;20572;-75
2022/04/16 11:23:39;;;;;;;1.53;0.90;;;19.60;38.10;;;;;;5039593;28;20467;-75
2022/04/16 11:34:25;;;;;;;0.70;0.60;;;19.40;37.40;;;;;;5054223;28;20041;-76
2022/04/16 11:36:51;;;;;;;1.93;0.80;;;19.30;34.30;;;;;;5055621;28;20182;-78
2022/04/16 11:39:18;;;;;;;1.30;0.80;;;18.90;35.00;;;;;;5040744;28;20043;-76
2022/04/16 11:41:52;;;;;;;4.60;0.60;;;18.70;36.90;;;;;;5048528;28;20045;-76
2022/04/16 11:44:31;;;;;;;1.50;0.70;;;18.80;37.50;;;;;;5036296;28;20048;-77
2022/04/16 11:46:58;;;;;;;1.40;0.80;;;18.90;35.90;;;;;;5018002;28;20056;-74
2022/04/16 11:49:24;;;;;;;2.10;0.70;;;18.90;34.80;;;;;;5035456;28;20048;-76
2022/04/16 11:51:50;;;;;;;6.23;0.80;;;18.90;36.00;;;;;;5046432;28;20083;-77
2022/04/16 11:54:26;;;;;;;1.10;0.73;;;19.00;36.00;;;;;;5062865;28;21229;-76
2022/04/16 11:56:52;;;;;;;1.73;1.00;;;19.00;35.20;;;;;;5055748;28;20096;-77
2022/04/16 11:59:23;;;;;;;2.03;1.13;;;19.10;36.40;;;;;;5045223;28;20545;-76
2022/04/16 12:01:58;;;;;;;1.67;0.77;;;19.20;36.90;;;;;;5038253;28;20041;-78
2022/04/16 12:04:39;;;;;;;3.47;1.10;;;19.30;38.10;;;;;;5002081;28;20069;-76
2022/04/16 12:07:12;;;;;;;3.07;1.07;;;19.30;37.80;;;;;;5019601;28;20067;-76
2022/04/16 12:09:44;;;;;;;2.25;0.77;;;19.10;36.70;;;;;;5053430;28;20041;-78
2022/04/16 12:12:12;;;;;;;2.60;1.00;;;19.10;36.60;;;;;;5051268;28;20040;-76
2022/04/16 12:14:45;;;;;;;2.07;0.90;;;19.10;39.10;;;;;;5036711;28;20053;-78
2022/04/16 12:17:24;;;;;;;2.83;1.00;;;19.40;36.80;;;;;;5036634;28;20079;-75
2022/04/16 12:20:06;;;;;;;2.77;1.10;;;19.40;37.80;;;;;;5013684;28;20099;-77
2022/04/16 12:22:33;;;;;;;2.67;0.80;;;19.40;38.10;;;;;;5058842;28;20076;-76
2022/04/16 12:25:09;;;;;;;1.33;0.73;;;19.30;36.50;;;;;;5037069;28;20064;-77
2022/04/16 12:27:35;;;;;;;1.97;0.70;;;18.90;34.70;;;;;;5033417;28;20444;-76
2022/04/16 12:30:02;;;;;;;1.37;0.90;;;18.80;36.20;;;;;;5047881;28;20083;-76
2022/04/16 12:32:30;;;;;;;5.33;1.03;;;18.80;35.40;;;;;;5022698;28;20029;-77
2022/04/16 12:34:55;;;;;;;2.00;0.80;;;18.80;35.20;;;;;;5036147;28;20041;-77
2022/04/16 12:37:22;;;;;;;1.20;0.80;;;18.70;33.50;;;;;;5031070;28;20099;-79
2022/04/16 12:39:48;;;;;;;1.33;0.80;;;18.60;34.60;;;;;;5022294;28;20757;-78
2022/04/16 12:42:14;;;;;;;4.37;0.80;;;18.70;35.50;;;;;;5018399;28;20037;-76
2022/04/16 12:44:40;;;;;;;1.83;0.83;;;18.80;35.50;;;;;;5055834;28;20496;-76
2022/04/16 12:47:06;;;;;;;2.50;0.70;;;18.90;35.20;;;;;;5039290;28;20072;-77
2022/04/16 12:49:33;;;;;;;5.17;1.00;;;18.80;35.10;;;;;;5019317;28;20052;-77
2022/04/16 12:51:59;;;;;;;5.90;0.93;;;18.90;36.60;;;;;;5036540;28;20048;-78
2022/04/16 12:54:26;;;;;;;4.63;1.10;;;18.90;34.80;;;;;;5052604;28;20049;-75
2022/04/16 12:56:51;;;;;;;1.77;0.80;;;19.00;36.50;;;;;;5050991;28;20417;-74
2022/04/16 12:59:17;;;;;;;3.57;0.80;;;18.90;34.90;;;;;;5019168;28;20041;-77
2022/04/16 13:01:43;;;;;;;1.10;0.70;;;18.90;34.40;;;;;;5054490;28;20083;-77
2022/04/16 13:04:09;;;;;;;2.53;0.90;;;18.90;34.90;;;;;;5042149;28;20068;-75